createdAt,value
2022-11-06T00:00:34.504Z,19.05
2022-11-06T00:03:01.112Z,19.06
2022-11-06T00:05:27.636Z,19.04
2022-11-06T00:07:53.964Z,19.04
2022-11-06T00:10:20.230Z,19.04
2022-11-06T00:12:46.490Z,19.03
2022-11-06T00:15:12.779Z,19.01
2022-11-06T00:17:39.057Z,19.01
2022-11-06T00:20:05.336Z,19.02
2022-11-06T00:22:31.589Z,19.02
2022-11-06T00:24:57.812Z,18.99
2022-11-06T00:27:24.272Z,18.99
2022-11-06T00:29:50.743Z,18.99
2022-11-06T00:32:17.223Z,18.98
2022-11-06T00:34:43.831Z,18.97
2022-11-06T00:37:10.118Z,18.98
2022-11-06T00:39:36.593Z,18.97
2022-11-06T00:42:02.859Z,18.97
2022-11-06T00:44:29.247Z,18.96
2022-11-06T00:46:55.531Z,18.96
2022-11-06T00:49:21.801Z,18.94
2022-11-06T00:51:48.107Z,18.94
2022-11-06T00:54:14.335Z,18.93
2022-11-06T00:56:40.760Z,18.91
2022-11-06T00:59:07.109Z,18.92
2022-11-06T01:01:33.526Z,18.91
2022-11-06T01:04:00.411Z,18.89
2022-11-06T01:06:26.723Z,18.89
2022-11-06T01:08:53.094Z,18.88
2022-11-06T01:11:19.360Z,18.88
2022-11-06T01:13:45.655Z,18.87
2022-11-06T01:16:12.044Z,18.85
2022-11-06T01:18:38.346Z,18.86
2022-11-06T01:21:04.580Z,18.84
2022-11-06T01:23:30.892Z,18.84
2022-11-06T01:25:57.174Z,18.82
2022-11-06T01:28:23.460Z,18.82
2022-11-06T01:30:49.736Z,18.82
2022-11-06T01:33:16.066Z,18.82
2022-11-06T01:35:42.394Z,18.81
2022-11-06T01:38:08.652Z,18.78
2022-11-06T01:40:34.976Z,18.79
2022-11-06T01:43:01.288Z,18.77
2022-11-06T01:45:27.593Z,18.76
2022-11-06T01:47:54.073Z,18.78
2022-11-06T01:50:20.374Z,18.77
2022-11-06T01:52:46.592Z,18.75
2022-11-06T01:55:12.945Z,18.73
2022-11-06T01:57:39.482Z,18.74
2022-11-06T02:00:05.860Z,18.73
2022-11-06T02:02:32.342Z,18.72
2022-11-06T02:04:58.805Z,18.72
2022-11-06T02:07:26.973Z,18.72
2022-11-06T02:09:53.322Z,18.71
2022-11-06T02:12:19.740Z,18.70
2022-11-06T02:14:46.130Z,18.69
2022-11-06T02:17:12.664Z,18.69
2022-11-06T02:19:39.031Z,18.69
2022-11-06T02:22:05.354Z,18.67
2022-11-06T02:24:31.795Z,18.67
2022-11-06T02:26:58.208Z,18.66
2022-11-06T02:29:24.527Z,18.65
2022-11-06T02:31:50.966Z,18.66
2022-11-06T02:34:17.351Z,18.64
2022-11-06T02:36:43.574Z,18.63
2022-11-06T02:39:09.981Z,18.64
2022-11-06T02:41:36.521Z,18.62
2022-11-06T02:44:02.878Z,18.62
2022-11-06T02:46:29.199Z,18.62
2022-11-06T02:48:55.579Z,18.62
2022-11-06T02:51:21.893Z,18.60
2022-11-06T02:53:48.474Z,18.60
2022-11-06T02:56:14.868Z,18.58
2022-11-06T02:58:44.829Z,18.60
2022-11-06T03:01:15.226Z,18.58
2022-11-06T03:03:41.588Z,18.58
2022-11-06T03:06:08.247Z,18.57
2022-11-06T03:08:34.620Z,18.56
2022-11-06T03:11:01.081Z,18.55
2022-11-06T03:13:27.513Z,18.55
2022-11-06T03:15:53.855Z,18.54
2022-11-06T03:18:20.201Z,18.53
2022-11-06T03:20:46.625Z,18.53
2022-11-06T03:25:42.581Z,18.52
2022-11-06T03:28:09.229Z,18.50
2022-11-06T03:30:35.781Z,18.50
2022-11-06T03:33:02.030Z,18.50
2022-11-06T03:35:28.362Z,18.48
2022-11-06T03:37:54.778Z,18.48
2022-11-06T03:40:21.114Z,18.47
2022-11-06T03:42:47.507Z,18.48
2022-11-06T03:45:13.807Z,18.48
2022-11-06T03:47:40.169Z,18.48
2022-11-06T03:50:06.545Z,18.46
2022-11-06T03:52:36.199Z,18.46
2022-11-06T03:55:02.531Z,18.45
2022-11-06T03:57:28.907Z,18.44
2022-11-06T03:59:55.208Z,18.42
2022-11-06T04:02:21.733Z,18.41
2022-11-06T04:04:49.561Z,18.41
2022-11-06T04:07:16.407Z,18.40
2022-11-06T04:09:42.775Z,18.40
2022-11-06T04:12:09.161Z,18.38
2022-11-06T04:14:35.636Z,18.38
2022-11-06T04:17:02.017Z,18.38
2022-11-06T04:19:28.364Z,18.38
2022-11-06T04:21:54.829Z,18.37
2022-11-06T04:24:21.126Z,18.36
2022-11-06T04:26:47.451Z,18.34
2022-11-06T04:29:13.868Z,18.33
2022-11-06T04:31:40.200Z,18.33
2022-11-06T04:34:06.544Z,18.32
2022-11-06T04:36:33.136Z,18.32
2022-11-06T04:38:59.454Z,18.31
2022-11-06T04:41:25.766Z,18.30
2022-11-06T04:43:52.106Z,18.29
2022-11-06T04:46:18.355Z,18.28
2022-11-06T04:48:44.730Z,18.27
2022-11-06T04:51:11.183Z,18.26
2022-11-06T04:53:37.682Z,18.26
2022-11-06T04:56:04.230Z,18.27
2022-11-06T04:58:30.704Z,18.26
2022-11-06T05:00:57.115Z,18.26
2022-11-06T05:03:23.603Z,18.24
2022-11-06T05:05:49.912Z,18.23
2022-11-06T05:08:16.669Z,18.24
2022-11-06T05:10:43.254Z,18.22
2022-11-06T05:13:09.724Z,18.22
2022-11-06T05:15:36.112Z,18.21
2022-11-06T05:18:02.467Z,18.20
2022-11-06T05:20:28.744Z,18.18
2022-11-06T05:22:55.267Z,18.19
2022-11-06T05:25:21.908Z,18.19
2022-11-06T05:27:48.456Z,18.19
2022-11-06T05:30:14.963Z,18.16
2022-11-06T05:32:41.324Z,18.17
2022-11-06T05:35:07.627Z,18.15
2022-11-06T05:37:33.926Z,18.16
2022-11-06T05:40:00.158Z,18.14
2022-11-06T05:42:26.659Z,18.13
2022-11-06T05:44:53.193Z,18.13
2022-11-06T05:47:19.507Z,18.12
2022-11-06T05:49:45.857Z,18.10
2022-11-06T05:52:12.132Z,18.10
2022-11-06T05:54:38.502Z,18.09
2022-11-06T05:57:04.864Z,18.09
2022-11-06T05:59:31.208Z,18.08
2022-11-06T06:01:57.560Z,18.08
2022-11-06T06:04:24.014Z,18.08
2022-11-06T06:06:50.330Z,18.04
2022-11-06T06:09:16.668Z,18.06
2022-11-06T06:11:42.918Z,18.04
2022-11-06T06:14:09.431Z,18.03
2022-11-06T06:16:35.878Z,18.02
2022-11-06T06:19:02.414Z,18.01
2022-11-06T06:21:28.650Z,18.01
2022-11-06T06:23:54.922Z,18.00
2022-11-06T06:26:21.255Z,17.99
2022-11-06T06:28:47.758Z,17.99
2022-11-06T06:31:14.171Z,17.97
2022-11-06T06:33:40.612Z,17.97
2022-11-06T06:36:06.890Z,17.96
2022-11-06T06:38:33.270Z,17.97
2022-11-06T06:40:59.605Z,17.96
2022-11-06T06:43:25.972Z,17.94
2022-11-06T06:45:52.502Z,17.96
2022-11-06T06:48:19.018Z,17.93
2022-11-06T06:50:45.691Z,17.93
2022-11-06T06:53:11.998Z,17.92
2022-11-06T06:55:38.383Z,17.91
2022-11-06T06:58:04.751Z,17.92
2022-11-06T07:00:31.107Z,17.91
2022-11-06T07:02:57.784Z,17.91
2022-11-06T07:05:24.110Z,17.91
2022-11-06T07:07:50.596Z,17.90
2022-11-06T07:10:16.908Z,17.90
2022-11-06T07:12:43.264Z,17.90
2022-11-06T07:15:09.583Z,17.89
2022-11-06T07:17:35.897Z,17.90
2022-11-06T07:20:02.218Z,17.89
2022-11-06T07:22:35.439Z,17.89
2022-11-06T07:25:02.850Z,17.89
2022-11-06T07:27:29.185Z,17.87
2022-11-06T07:29:55.711Z,17.87
2022-11-06T07:32:22.025Z,17.87
2022-11-06T07:34:48.432Z,17.88
2022-11-06T07:37:14.720Z,17.86
2022-11-06T07:39:41.018Z,17.85
2022-11-06T07:42:07.300Z,17.86
2022-11-06T07:44:33.684Z,17.84
2022-11-06T07:47:00.505Z,17.85
2022-11-06T07:49:26.875Z,17.84
2022-11-06T07:51:53.198Z,17.84
2022-11-06T07:54:19.828Z,17.83
2022-11-06T07:56:46.183Z,17.84
2022-11-06T07:59:12.512Z,17.83
2022-11-06T08:01:38.966Z,17.83
2022-11-06T08:04:05.548Z,17.82
2022-11-06T08:06:31.916Z,17.83
2022-11-06T08:08:59.250Z,17.83
2022-11-06T08:11:25.637Z,17.82
2022-11-06T08:13:51.995Z,17.81
2022-11-06T08:16:18.253Z,17.80
2022-11-06T08:18:44.909Z,17.81
2022-11-06T08:21:11.196Z,17.78
2022-11-06T08:23:37.809Z,17.77
2022-11-06T08:26:04.512Z,17.78
2022-11-06T08:28:30.974Z,17.79
2022-11-06T08:30:57.295Z,17.80
2022-11-06T08:33:23.798Z,17.80
2022-11-06T08:35:50.218Z,17.80
2022-11-06T08:38:16.763Z,17.81
2022-11-06T08:40:43.234Z,17.81
2022-11-06T08:43:09.758Z,17.79
2022-11-06T08:45:36.019Z,17.79
2022-11-06T08:48:02.333Z,17.77
2022-11-06T08:50:28.680Z,17.79
2022-11-06T08:52:55.179Z,17.82
2022-11-06T08:55:21.760Z,17.82
2022-11-06T08:57:48.339Z,17.83
2022-11-06T09:00:14.655Z,17.82
2022-11-06T09:02:41.051Z,17.84
2022-11-06T09:05:07.398Z,17.85
2022-11-06T09:07:33.783Z,17.89
2022-11-06T09:10:00.101Z,17.88
2022-11-06T09:12:26.938Z,17.87
2022-11-06T09:14:53.547Z,17.87
2022-11-06T09:17:20.081Z,17.87
2022-11-06T09:19:46.426Z,17.89
2022-11-06T09:22:12.708Z,17.89
2022-11-06T09:25:01.866Z,17.89
2022-11-06T09:27:25.411Z,17.87
2022-11-06T09:29:51.808Z,17.88
2022-11-06T09:32:18.043Z,17.89
2022-11-06T09:34:44.772Z,17.89
2022-11-06T09:37:11.665Z,17.87
2022-11-06T09:39:38.219Z,17.87
2022-11-06T09:42:04.591Z,17.88
2022-11-06T09:44:31.104Z,17.89
2022-11-06T09:46:57.472Z,17.91
2022-11-06T09:49:23.746Z,17.90
2022-11-06T09:51:50.172Z,17.90
2022-11-06T09:54:16.733Z,17.91
2022-11-06T09:56:43.211Z,17.88
2022-11-06T09:59:09.977Z,17.88
2022-11-06T10:01:36.387Z,17.89
2022-11-06T10:04:02.882Z,17.86
2022-11-06T10:06:29.421Z,17.88
2022-11-06T10:08:56.059Z,17.85
2022-11-06T10:11:22.370Z,17.87
2022-11-06T10:13:49.123Z,17.85
2022-11-06T10:16:15.655Z,17.83
2022-11-06T10:18:41.946Z,17.82
2022-11-06T10:21:08.332Z,17.83
2022-11-06T10:23:34.687Z,17.85
2022-11-06T10:26:01.090Z,17.85
2022-11-06T10:28:28.049Z,17.86
2022-11-06T10:30:54.522Z,17.88
2022-11-06T10:33:21.028Z,17.89
2022-11-06T10:35:47.335Z,17.87
2022-11-06T10:38:13.982Z,17.91
2022-11-06T10:40:40.461Z,17.90
2022-11-06T10:43:07.157Z,17.91
2022-11-06T10:45:33.421Z,17.91
2022-11-06T10:47:59.845Z,17.87
2022-11-06T10:50:26.300Z,17.87
2022-11-06T10:52:52.658Z,17.88
2022-11-06T10:55:19.086Z,17.90
2022-11-06T10:57:45.455Z,17.90
2022-11-06T11:00:11.869Z,17.90
2022-11-06T11:02:38.325Z,17.91
2022-11-06T11:05:04.800Z,17.93
2022-11-06T11:07:31.175Z,17.91
2022-11-06T11:09:57.883Z,17.93
2022-11-06T11:12:24.144Z,17.94
2022-11-06T11:14:50.435Z,17.94
2022-11-06T11:17:16.761Z,17.92
2022-11-06T11:19:43.079Z,17.94
2022-11-06T11:22:09.573Z,17.95
2022-11-06T11:24:35.860Z,17.97
2022-11-06T11:27:02.096Z,18.04
2022-11-06T11:29:28.440Z,18.16
2022-11-06T11:31:54.705Z,18.28
2022-11-06T11:34:21.050Z,18.42
2022-11-06T11:36:47.936Z,18.48
2022-11-06T11:39:14.245Z,18.60
2022-11-06T11:41:40.572Z,18.69
2022-11-06T11:44:06.929Z,18.76
2022-11-06T11:46:33.200Z,18.87
2022-11-06T11:48:59.622Z,18.92
2022-11-06T11:51:26.251Z,18.94
2022-11-06T11:53:52.578Z,18.99
2022-11-06T11:56:31.307Z,19.05
2022-11-06T11:59:06.698Z,19.09
2022-11-06T12:01:33.198Z,19.13
2022-11-06T12:03:59.642Z,19.17
2022-11-06T12:06:26.126Z,19.21
2022-11-06T12:08:52.654Z,19.25
2022-11-06T12:11:18.958Z,19.24
2022-11-06T12:13:45.287Z,19.26
2022-11-06T12:16:11.584Z,19.33
2022-11-06T12:18:37.877Z,19.37
2022-11-06T12:21:04.399Z,19.39
2022-11-06T12:23:30.934Z,19.42
2022-11-06T12:25:57.284Z,19.43
2022-11-06T12:28:23.731Z,19.48
2022-11-06T12:30:50.219Z,19.52
2022-11-06T12:33:16.560Z,19.55
2022-11-06T12:35:42.979Z,19.58
2022-11-06T12:38:09.775Z,19.57
2022-11-06T12:40:36.178Z,19.63
2022-11-06T12:43:02.758Z,19.67
2022-11-06T12:45:29.107Z,19.68
2022-11-06T12:47:55.463Z,19.71
2022-11-06T12:50:21.913Z,19.73
2022-11-06T12:52:48.240Z,19.76
2022-11-06T12:55:14.642Z,19.83
2022-11-06T12:57:41.080Z,19.84
2022-11-06T13:00:08.150Z,19.85
2022-11-06T13:02:34.643Z,19.88
2022-11-06T13:05:01.133Z,19.90
2022-11-06T13:07:27.432Z,19.93
2022-11-06T13:09:53.918Z,19.94
2022-11-06T13:12:20.290Z,19.94
2022-11-06T13:14:46.634Z,20.00
2022-11-06T13:17:12.968Z,20.02
2022-11-06T13:19:39.606Z,20.06
2022-11-06T13:22:05.999Z,20.07
2022-11-06T13:24:32.678Z,20.10
2022-11-06T13:26:58.936Z,20.11
2022-11-06T13:29:25.558Z,20.17
2022-11-06T13:31:52.024Z,20.17
2022-11-06T13:34:18.359Z,20.17
2022-11-06T13:36:44.680Z,20.24
2022-11-06T13:39:11.019Z,20.27
2022-11-06T13:41:37.437Z,20.38
2022-11-06T13:44:03.793Z,20.36
2022-11-06T13:46:30.249Z,20.32
2022-11-06T13:48:56.673Z,20.27
2022-11-06T13:51:22.936Z,20.24
2022-11-06T13:53:49.367Z,20.23
2022-11-06T13:56:15.854Z,20.19
2022-11-06T13:58:42.280Z,20.18
2022-11-06T14:01:08.879Z,20.15
2022-11-06T14:03:35.492Z,20.23
2022-11-06T14:06:02.085Z,20.20
2022-11-06T14:08:28.463Z,20.15
2022-11-06T14:10:54.768Z,20.13
2022-11-06T14:13:21.125Z,20.11
2022-11-06T14:15:47.721Z,20.07
2022-11-06T14:18:14.259Z,20.05
2022-11-06T14:20:41.033Z,20.04
2022-11-06T14:23:07.451Z,20.02
2022-11-06T14:25:33.951Z,20.01
2022-11-06T14:28:00.296Z,19.99
2022-11-06T14:30:43.831Z,19.96
2022-11-06T14:33:13.391Z,19.84
2022-11-06T14:35:39.830Z,19.80
2022-11-06T14:38:06.230Z,19.79
2022-11-06T14:40:32.473Z,19.78
2022-11-06T14:42:58.816Z,19.76
2022-11-06T14:45:25.106Z,19.74
2022-11-06T14:47:51.400Z,19.73
2022-11-06T14:50:17.763Z,19.71
2022-11-06T14:52:44.126Z,19.69
2022-11-06T14:55:10.425Z,19.67
2022-11-06T14:57:36.851Z,19.64
2022-11-06T15:00:03.128Z,19.62
2022-11-06T15:02:29.501Z,19.60
2022-11-06T15:04:55.929Z,19.57
2022-11-06T15:07:38.810Z,19.55
2022-11-06T15:10:08.494Z,19.52
2022-11-06T15:12:34.813Z,19.51
2022-11-06T15:15:01.119Z,19.51
2022-11-06T15:17:27.686Z,19.46
2022-11-06T15:19:54.016Z,19.45
2022-11-06T15:22:20.531Z,19.43
2022-11-06T15:24:46.853Z,19.41
2022-11-06T15:27:13.139Z,19.38
2022-11-06T15:29:39.522Z,19.37
2022-11-06T15:32:05.867Z,19.34
2022-11-06T15:34:32.281Z,19.32
2022-11-06T15:36:58.641Z,19.30
2022-11-06T15:39:25.590Z,19.28
2022-11-06T15:41:51.892Z,19.26
2022-11-06T15:44:18.136Z,19.24
2022-11-06T15:46:44.630Z,19.22
2022-11-06T15:49:11.001Z,19.21
2022-11-06T15:51:37.308Z,19.17
2022-11-06T15:54:03.668Z,19.15
2022-11-06T15:56:29.918Z,19.14
2022-11-06T15:58:56.204Z,19.12
2022-11-06T16:01:22.659Z,19.10
2022-11-06T16:03:49.326Z,19.08
2022-11-06T16:06:15.617Z,19.07
2022-11-06T16:08:41.900Z,19.03
2022-11-06T16:11:13.084Z,19.02
2022-11-06T16:13:39.694Z,19.02
2022-11-06T16:16:06.104Z,19.00
2022-11-06T16:18:32.705Z,19.00
2022-11-06T16:20:59.136Z,18.96
2022-11-06T16:23:33.452Z,18.95
2022-11-06T16:26:02.488Z,18.94
2022-11-06T16:28:29.007Z,18.92
2022-11-06T16:30:55.259Z,18.91
2022-11-06T16:33:21.690Z,18.88
2022-11-06T16:35:52.594Z,18.89
2022-11-06T16:38:41.076Z,18.87
2022-11-06T16:41:07.674Z,18.84
2022-11-06T16:43:34.054Z,18.83
2022-11-06T16:46:00.380Z,18.81
2022-11-06T16:48:26.954Z,18.79
2022-11-06T16:50:53.258Z,18.79
2022-11-06T16:53:19.614Z,18.76
2022-11-06T16:55:45.941Z,18.75
2022-11-06T16:58:12.303Z,18.73
2022-11-06T17:00:38.609Z,18.71
2022-11-06T17:03:05.101Z,18.69
2022-11-06T17:05:31.378Z,18.69
2022-11-06T17:07:57.762Z,18.67
2022-11-06T17:10:24.042Z,18.65
2022-11-06T17:12:50.531Z,18.66
2022-11-06T17:15:16.852Z,18.62
2022-11-06T17:17:43.216Z,18.62
2022-11-06T17:20:09.626Z,18.61
2022-11-06T17:22:36.076Z,18.61
2022-11-06T17:25:02.370Z,18.58
2022-11-06T17:27:28.958Z,18.57
2022-11-06T17:29:55.432Z,18.57
2022-11-06T17:32:21.768Z,18.57
2022-11-06T17:34:48.100Z,18.56
2022-11-06T17:37:14.346Z,18.54
2022-11-06T17:39:40.781Z,18.54
2022-11-06T17:42:07.192Z,18.52
2022-11-06T17:44:33.683Z,18.50
2022-11-06T17:46:59.951Z,18.51
2022-11-06T17:49:26.519Z,18.51
2022-11-06T17:51:52.882Z,18.49
2022-11-06T17:54:19.450Z,18.48
2022-11-06T17:56:45.835Z,18.48
2022-11-06T17:59:12.334Z,18.48
2022-11-06T18:01:38.805Z,18.48
2022-11-06T18:04:05.169Z,18.47
2022-11-06T18:06:31.574Z,18.44
2022-11-06T18:08:57.846Z,18.44
2022-11-06T18:11:24.072Z,18.43
2022-11-06T18:13:50.375Z,18.42
2022-11-06T18:16:16.681Z,18.42
2022-11-06T18:18:42.989Z,18.42
2022-11-06T18:21:09.328Z,18.42
2022-11-06T18:23:35.735Z,18.40
2022-11-06T18:26:01.989Z,18.39
2022-11-06T18:28:28.548Z,18.39
2022-11-06T18:30:54.832Z,18.38
2022-11-06T18:33:21.238Z,18.37
2022-11-06T18:35:47.555Z,18.36
2022-11-06T18:38:14.185Z,18.36
2022-11-06T18:40:40.673Z,18.36
2022-11-06T18:43:07.103Z,18.33
2022-11-06T18:45:33.651Z,18.33
2022-11-06T18:48:00.132Z,18.32
2022-11-06T18:50:26.629Z,18.32
2022-11-06T18:52:57.805Z,18.30
2022-11-06T18:55:24.799Z,18.30
2022-11-06T18:57:51.312Z,18.29
2022-11-06T19:00:17.548Z,18.29
2022-11-06T19:02:43.953Z,18.30
2022-11-06T19:05:10.315Z,18.28
2022-11-06T19:07:37.019Z,18.27
2022-11-06T19:10:03.347Z,18.27
2022-11-06T19:12:29.644Z,18.26
2022-11-06T19:14:55.916Z,18.27
2022-11-06T19:17:22.272Z,18.24
2022-11-06T19:19:48.879Z,18.24
2022-11-06T19:22:15.141Z,18.23
2022-11-06T19:24:41.618Z,18.22
2022-11-06T19:27:07.896Z,18.22
2022-11-06T19:29:34.259Z,18.19
2022-11-06T19:32:00.589Z,18.18
2022-11-06T19:34:26.988Z,18.20
2022-11-06T19:36:53.347Z,18.19
2022-11-06T19:39:19.744Z,18.19
2022-11-06T19:41:46.055Z,18.18
2022-11-06T19:44:12.371Z,18.17
2022-11-06T19:46:38.724Z,18.16
2022-11-06T19:49:05.159Z,18.16
2022-11-06T19:51:31.431Z,18.16
2022-11-06T19:53:57.718Z,18.14
2022-11-06T19:56:24.013Z,18.14
2022-11-06T19:58:50.410Z,18.14
2022-11-06T20:01:16.754Z,18.15
2022-11-06T20:03:43.136Z,18.13
2022-11-06T20:06:09.391Z,18.10
2022-11-06T20:08:35.695Z,18.10
2022-11-06T20:11:02.142Z,18.10
2022-11-06T20:13:28.456Z,18.09
2022-11-06T20:15:54.750Z,18.09
2022-11-06T20:18:21.076Z,18.08
2022-11-06T20:20:47.385Z,18.08
2022-11-06T20:23:13.899Z,18.06
2022-11-06T20:25:40.341Z,18.06
2022-11-06T20:28:06.672Z,18.04
2022-11-06T20:30:33.204Z,18.04
2022-11-06T20:32:59.588Z,18.03
2022-11-06T20:35:25.901Z,18.02
2022-11-06T20:37:52.422Z,18.02
2022-11-06T20:40:18.740Z,17.99
2022-11-06T20:42:45.191Z,18.00
2022-11-06T20:45:11.493Z,18.00
2022-11-06T20:47:37.883Z,17.99
2022-11-06T20:50:04.389Z,17.98
2022-11-06T20:52:30.701Z,17.97
2022-11-06T20:54:57.046Z,17.98
2022-11-06T20:57:23.409Z,17.98
2022-11-06T20:59:49.686Z,17.96
2022-11-06T21:02:16.093Z,17.95
2022-11-06T21:04:42.608Z,17.96
2022-11-06T21:07:09.060Z,17.95
2022-11-06T21:09:35.416Z,17.94
2022-11-06T21:12:01.843Z,17.93
2022-11-06T21:14:28.124Z,17.95
2022-11-06T21:16:54.434Z,17.94
2022-11-06T21:19:20.766Z,17.92
2022-11-06T21:21:47.048Z,17.92
2022-11-06T21:24:13.371Z,17.89
2022-11-06T21:26:39.654Z,17.90
2022-11-06T21:29:06.012Z,17.89
2022-11-06T21:31:32.333Z,17.90
2022-11-06T21:33:58.637Z,17.90
2022-11-06T21:36:24.925Z,17.89
2022-11-06T21:38:51.279Z,17.87
2022-11-06T21:41:17.585Z,17.86
2022-11-06T21:43:44.036Z,17.86
2022-11-06T21:46:10.376Z,17.87
2022-11-06T21:48:52.220Z,17.86
2022-11-06T21:51:18.755Z,17.85
2022-11-06T21:53:45.062Z,17.86
2022-11-06T21:56:11.516Z,17.85
2022-11-06T21:58:37.803Z,17.83
2022-11-06T22:01:04.139Z,17.83
2022-11-06T22:03:31.136Z,17.83
2022-11-06T22:05:57.474Z,17.83
2022-11-06T22:08:27.101Z,17.81
2022-11-06T22:10:56.271Z,17.81
2022-11-06T22:13:22.619Z,17.82
2022-11-06T22:15:49.003Z,17.80
2022-11-06T22:18:15.501Z,17.78
2022-11-06T22:20:41.885Z,17.77
2022-11-06T22:23:08.751Z,17.78
2022-11-06T22:25:35.128Z,17.77
2022-11-06T22:28:01.535Z,17.77
2022-11-06T22:30:27.847Z,17.76
2022-11-06T22:32:54.148Z,17.77
2022-11-06T22:35:20.392Z,17.74
2022-11-06T22:37:46.720Z,17.75
2022-11-06T22:40:13.009Z,17.73
2022-11-06T22:42:39.290Z,17.74
2022-11-06T22:45:05.836Z,17.73
2022-11-06T22:47:32.187Z,17.72
2022-11-06T22:49:58.434Z,17.71
2022-11-06T22:52:24.753Z,17.70
2022-11-06T22:54:51.068Z,17.71
2022-11-06T22:57:17.796Z,17.71
2022-11-06T22:59:44.253Z,17.70
2022-11-06T23:02:10.580Z,17.70
2022-11-06T23:04:36.887Z,17.69
2022-11-06T23:07:03.269Z,17.67
2022-11-06T23:09:29.720Z,17.69
2022-11-06T23:11:56.180Z,17.68
2022-11-06T23:14:22.476Z,17.68
2022-11-06T23:16:48.699Z,17.69
2022-11-06T23:19:15.016Z,17.65
2022-11-06T23:21:41.307Z,17.66
2022-11-06T23:24:07.710Z,17.64
2022-11-06T23:26:34.124Z,17.64
2022-11-06T23:29:00.454Z,17.65
2022-11-06T23:31:26.777Z,17.62
2022-11-06T23:33:53.176Z,17.65
2022-11-06T23:36:19.467Z,17.63
2022-11-06T23:38:45.770Z,17.62
2022-11-06T23:41:12.142Z,17.60
2022-11-06T23:43:38.448Z,17.60
2022-11-06T23:46:04.672Z,17.57
2022-11-06T23:48:31.003Z,17.59
2022-11-06T23:50:57.317Z,17.58
2022-11-06T23:53:23.547Z,17.57
2022-11-06T23:55:49.803Z,17.59
2022-11-06T23:58:16.392Z,17.58
